sensor_id;sensor_type;location;lat;lon;timestamp;P1;durP1;ratioP1;P2;durP2;ratioP2
39300;SDS011;25019;42.626;23.380;2023-02-12T00:00:05;6.40;;;4.97;;
39300;SDS011;25019;42.626;23.380;2023-02-12T00:02:40;8.00;;;5.33;;
39300;SDS011;25019;42.626;23.380;2023-02-12T00:05:05;8.67;;;5.70;;
39300;SDS011;25019;42.626;23.380;2023-02-12T00:07:32;8.40;;;5.83;;
39300;SDS011;25019;42.626;23.380;2023-02-12T00:09:57;8.07;;;4.53;;
39300;SDS011;25019;42.626;23.380;2023-02-12T00:12:23;11.17;;;6.53;;
39300;SDS011;25019;42.626;23.380;2023-02-12T00:14:48;14.03;;;5.93;;
39300;SDS011;25019;42.626;23.380;2023-02-12T00:17:14;7.27;;;5.13;;
39300;SDS011;25019;42.626;23.380;2023-02-12T00:19:40;9.00;;;5.60;;
39300;SDS011;25019;42.626;23.380;2023-02-12T00:22:05;10.93;;;5.10;;
39300;SDS011;25019;42.626;23.380;2023-02-12T00:24:31;8.00;;;5.13;;
39300;SDS011;25019;42.626;23.380;2023-02-12T00:26:56;7.83;;;3.93;;
39300;SDS011;25019;42.626;23.380;2023-02-12T00:29:22;10.40;;;5.77;;
39300;SDS011;25019;42.626;23.380;2023-02-12T00:31:47;9.27;;;5.53;;
39300;SDS011;25019;42.626;23.380;2023-02-12T00:34:14;8.70;;;4.70;;
39300;SDS011;25019;42.626;23.380;2023-02-12T00:36:39;6.17;;;4.37;;
39300;SDS011;25019;42.626;23.380;2023-02-12T00:39:05;7.00;;;4.37;;
39300;SDS011;25019;42.626;23.380;2023-02-12T00:41:31;7.80;;;5.00;;
39300;SDS011;25019;42.626;23.380;2023-02-12T00:43:56;8.27;;;5.23;;
39300;SDS011;25019;42.626;23.380;2023-02-12T00:46:22;8.13;;;5.10;;
39300;SDS011;25019;42.626;23.380;2023-02-12T00:48:48;11.07;;;5.20;;
39300;SDS011;25019;42.626;23.380;2023-02-12T00:51:17;9.57;;;6.07;;
39300;SDS011;25019;42.626;23.380;2023-02-12T00:53:42;6.63;;;3.90;;
39300;SDS011;25019;42.626;23.380;2023-02-12T00:56:08;6.70;;;4.17;;
39300;SDS011;25019;42.626;23.380;2023-02-12T00:58:34;9.57;;;5.80;;
39300;SDS011;25019;42.626;23.380;2023-02-12T01:01:00;11.47;;;5.20;;
39300;SDS011;25019;42.626;23.380;2023-02-12T01:03:25;6.30;;;3.90;;
39300;SDS011;25019;42.626;23.380;2023-02-12T01:05:51;7.47;;;5.30;;
39300;SDS011;25019;42.626;23.380;2023-02-12T01:08:19;7.93;;;5.30;;
39300;SDS011;25019;42.626;23.380;2023-02-12T01:10:45;7.90;;;5.20;;
39300;SDS011;25019;42.626;23.380;2023-02-12T01:13:19;8.13;;;5.00;;
39300;SDS011;25019;42.626;23.380;2023-02-12T01:15:45;6.17;;;3.67;;
39300;SDS011;25019;42.626;23.380;2023-02-12T01:18:11;7.30;;;4.63;;
39300;SDS011;25019;42.626;23.380;2023-02-12T01:20:38;8.70;;;5.07;;
39300;SDS011;25019;42.626;23.380;2023-02-12T01:23:04;7.43;;;5.00;;
39300;SDS011;25019;42.626;23.380;2023-02-12T01:25:31;7.07;;;4.73;;
39300;SDS011;25019;42.626;23.380;2023-02-12T01:27:56;8.63;;;4.90;;
39300;SDS011;25019;42.626;23.380;2023-02-12T01:30:22;7.57;;;5.23;;
39300;SDS011;25019;42.626;23.380;2023-02-12T01:32:49;8.60;;;5.60;;
39300;SDS011;25019;42.626;23.380;2023-02-12T01:35:15;8.97;;;5.47;;
39300;SDS011;25019;42.626;23.380;2023-02-12T01:37:41;11.43;;;5.87;;
39300;SDS011;25019;42.626;23.380;2023-02-12T01:40:07;8.40;;;5.63;;
39300;SDS011;25019;42.626;23.380;2023-02-12T01:42:34;7.13;;;5.00;;
39300;SDS011;25019;42.626;23.380;2023-02-12T01:47:39;7.83;;;4.73;;
39300;SDS011;25019;42.626;23.380;2023-02-12T01:50:06;10.07;;;4.60;;
39300;SDS011;25019;42.626;23.380;2023-02-12T01:52:34;7.73;;;4.83;;
39300;SDS011;25019;42.626;23.380;2023-02-12T01:55:03;8.50;;;5.30;;
39300;SDS011;25019;42.626;23.380;2023-02-12T01:57:32;9.03;;;4.63;;
39300;SDS011;25019;42.626;23.380;2023-02-12T02:00:03;9.17;;;4.77;;
39300;SDS011;25019;42.626;23.380;2023-02-12T02:02:39;12.93;;;6.07;;
39300;SDS011;25019;42.626;23.380;2023-02-12T02:05:07;8.27;;;5.77;;
39300;SDS011;25019;42.626;23.380;2023-02-12T02:07:33;9.17;;;5.97;;
39300;SDS011;25019;42.626;23.380;2023-02-12T02:09:58;11.57;;;6.23;;
39300;SDS011;25019;42.626;23.380;2023-02-12T02:12:27;9.00;;;5.77;;
39300;SDS011;25019;42.626;23.380;2023-02-12T02:15:15;8.10;;;5.40;;
39300;SDS011;25019;42.626;23.380;2023-02-12T02:17:44;7.53;;;4.97;;
39300;SDS011;25019;42.626;23.380;2023-02-12T02:25:56;9.93;;;5.90;;
39300;SDS011;25019;42.626;23.380;2023-02-12T02:31:45;7.87;;;4.53;;
39300;SDS011;25019;42.626;23.380;2023-02-12T02:34:37;9.33;;;5.70;;
39300;SDS011;25019;42.626;23.380;2023-02-12T02:37:23;6.77;;;3.90;;
39300;SDS011;25019;42.626;23.380;2023-02-12T02:40:18;8.27;;;4.27;;
39300;SDS011;25019;42.626;23.380;2023-02-12T02:42:58;7.97;;;5.10;;
39300;SDS011;25019;42.626;23.380;2023-02-12T02:45:40;9.10;;;5.13;;
39300;SDS011;25019;42.626;23.380;2023-02-12T02:48:15;10.50;;;5.87;;
39300;SDS011;25019;42.626;23.380;2023-02-12T02:51:13;9.00;;;5.20;;
39300;SDS011;25019;42.626;23.380;2023-02-12T02:53:44;7.73;;;4.83;;
39300;SDS011;25019;42.626;23.380;2023-02-12T02:56:22;10.20;;;5.53;;
39300;SDS011;25019;42.626;23.380;2023-02-12T02:58:52;9.80;;;5.27;;
39300;SDS011;25019;42.626;23.380;2023-02-12T03:01:23;11.27;;;5.33;;
39300;SDS011;25019;42.626;23.380;2023-02-12T03:07:19;13.03;;;7.20;;
39300;SDS011;25019;42.626;23.380;2023-02-12T03:12:40;8.87;;;5.63;;
39300;SDS011;25019;42.626;23.380;2023-02-12T03:15:39;10.90;;;6.53;;
39300;SDS011;25019;42.626;23.380;2023-02-12T03:18:42;13.03;;;7.10;;
39300;SDS011;25019;42.626;23.380;2023-02-12T03:21:10;11.47;;;6.63;;
39300;SDS011;25019;42.626;23.380;2023-02-12T03:23:41;13.80;;;7.37;;
39300;SDS011;25019;42.626;23.380;2023-02-12T03:26:16;12.53;;;6.77;;
39300;SDS011;25019;42.626;23.380;2023-02-12T03:28:47;11.23;;;6.97;;
39300;SDS011;25019;42.626;23.380;2023-02-12T03:42:05;18.20;;;8.73;;
39300;SDS011;25019;42.626;23.380;2023-02-12T03:47:14;13.70;;;7.83;;
39300;SDS011;25019;42.626;23.380;2023-02-12T03:49:58;17.33;;;7.97;;
39300;SDS011;25019;42.626;23.380;2023-02-12T03:52:31;12.40;;;8.03;;
39300;SDS011;25019;42.626;23.380;2023-02-12T03:54:58;15.50;;;9.00;;
39300;SDS011;25019;42.626;23.380;2023-02-12T03:57:28;14.53;;;9.40;;
39300;SDS011;25019;42.626;23.380;2023-02-12T04:00:06;17.90;;;9.20;;
39300;SDS011;25019;42.626;23.380;2023-02-12T04:02:41;15.60;;;10.00;;
39300;SDS011;25019;42.626;23.380;2023-02-12T04:05:08;18.83;;;9.40;;
39300;SDS011;25019;42.626;23.380;2023-02-12T04:07:41;14.00;;;8.23;;
39300;SDS011;25019;42.626;23.380;2023-02-12T04:10:06;14.77;;;9.03;;
39300;SDS011;25019;42.626;23.380;2023-02-12T04:12:36;16.23;;;8.87;;
39300;SDS011;25019;42.626;23.380;2023-02-12T04:17:43;14.77;;;9.07;;
39300;SDS011;25019;42.626;23.380;2023-02-12T04:20:30;18.43;;;8.93;;
39300;SDS011;25019;42.626;23.380;2023-02-12T04:31:06;16.57;;;9.17;;
39300;SDS011;25019;42.626;23.380;2023-02-12T04:33:39;14.50;;;9.17;;
39300;SDS011;25019;42.626;23.380;2023-02-12T04:36:16;13.53;;;7.27;;
39300;SDS011;25019;42.626;23.380;2023-02-12T04:38:56;17.00;;;8.97;;
39300;SDS011;25019;42.626;23.380;2023-02-12T04:41:26;16.57;;;8.83;;
39300;SDS011;25019;42.626;23.380;2023-02-12T04:43:52;22.20;;;12.40;;
39300;SDS011;25019;42.626;23.380;2023-02-12T04:46:17;23.20;;;13.77;;
39300;SDS011;25019;42.626;23.380;2023-02-12T04:48:50;24.03;;;14.13;;
39300;SDS011;25019;42.626;23.380;2023-02-12T04:51:18;23.53;;;14.63;;
39300;SDS011;25019;42.626;23.380;2023-02-12T04:53:44;26.10;;;15.30;;
39300;SDS011;25019;42.626;23.380;2023-02-12T04:56:10;24.93;;;15.00;;
39300;SDS011;25019;42.626;23.380;2023-02-12T04:58:38;27.10;;;14.37;;
39300;SDS011;25019;42.626;23.380;2023-02-12T05:01:04;22.30;;;14.03;;
39300;SDS011;25019;42.626;23.380;2023-02-12T05:03:30;21.73;;;13.90;;
39300;SDS011;25019;42.626;23.380;2023-02-12T05:06:00;23.33;;;13.87;;
39300;SDS011;25019;42.626;23.380;2023-02-12T05:08:33;23.50;;;15.00;;
39300;SDS011;25019;42.626;23.380;2023-02-12T05:11:02;23.47;;;13.77;;
39300;SDS011;25019;42.626;23.380;2023-02-12T05:13:30;22.10;;;12.93;;
39300;SDS011;25019;42.626;23.380;2023-02-12T05:15:55;27.20;;;14.47;;
39300;SDS011;25019;42.626;23.380;2023-02-12T05:18:21;23.87;;;13.00;;
39300;SDS011;25019;42.626;23.380;2023-02-12T05:20:53;18.53;;;12.00;;
39300;SDS011;25019;42.626;23.380;2023-02-12T05:23:24;20.10;;;10.87;;
39300;SDS011;25019;42.626;23.380;2023-02-12T05:25:56;10.00;;;5.70;;
39300;SDS011;25019;42.626;23.380;2023-02-12T05:28:22;10.80;;;6.80;;
39300;SDS011;25019;42.626;23.380;2023-02-12T05:30:48;13.33;;;7.87;;
39300;SDS011;25019;42.626;23.380;2023-02-12T05:33:14;11.70;;;6.70;;
39300;SDS011;25019;42.626;23.380;2023-02-12T05:35:39;9.87;;;5.63;;
39300;SDS011;25019;42.626;23.380;2023-02-12T05:38:05;13.77;;;7.53;;
39300;SDS011;25019;42.626;23.380;2023-02-12T05:40:31;11.70;;;5.90;;
39300;SDS011;25019;42.626;23.380;2023-02-12T05:42:57;11.30;;;5.87;;
39300;SDS011;25019;42.626;23.380;2023-02-12T05:45:22;12.67;;;6.67;;
39300;SDS011;25019;42.626;23.380;2023-02-12T05:47:53;13.83;;;7.67;;
39300;SDS011;25019;42.626;23.380;2023-02-12T05:50:20;11.20;;;6.73;;
39300;SDS011;25019;42.626;23.380;2023-02-12T05:52:56;11.53;;;6.80;;
39300;SDS011;25019;42.626;23.380;2023-02-12T05:55:24;13.60;;;7.13;;
39300;SDS011;25019;42.626;23.380;2023-02-12T05:57:50;12.87;;;7.63;;
39300;SDS011;25019;42.626;23.380;2023-02-12T06:00:15;10.93;;;6.60;;
39300;SDS011;25019;42.626;23.380;2023-02-12T06:02:41;12.70;;;7.73;;
39300;SDS011;25019;42.626;23.380;2023-02-12T06:05:07;14.70;;;8.37;;
39300;SDS011;25019;42.626;23.380;2023-02-12T06:07:33;13.93;;;7.07;;
39300;SDS011;25019;42.626;23.380;2023-02-12T06:09:58;10.83;;;6.63;;
39300;SDS011;25019;42.626;23.380;2023-02-12T06:12:24;10.00;;;6.83;;
39300;SDS011;25019;42.626;23.380;2023-02-12T06:14:51;9.07;;;5.67;;
39300;SDS011;25019;42.626;23.380;2023-02-12T06:17:16;10.77;;;6.27;;
39300;SDS011;25019;42.626;23.380;2023-02-12T06:19:42;10.27;;;6.43;;
39300;SDS011;25019;42.626;23.380;2023-02-12T06:22:07;10.37;;;6.30;;
39300;SDS011;25019;42.626;23.380;2023-02-12T06:24:33;10.00;;;6.27;;
39300;SDS011;25019;42.626;23.380;2023-02-12T06:26:59;13.87;;;7.87;;
39300;SDS011;25019;42.626;23.380;2023-02-12T06:29:24;11.97;;;6.13;;
39300;SDS011;25019;42.626;23.380;2023-02-12T06:31:50;10.90;;;6.57;;
39300;SDS011;25019;42.626;23.380;2023-02-12T06:34:15;12.03;;;7.20;;
39300;SDS011;25019;42.626;23.380;2023-02-12T06:36:43;9.30;;;6.23;;
39300;SDS011;25019;42.626;23.380;2023-02-12T06:39:10;15.30;;;6.90;;
39300;SDS011;25019;42.626;23.380;2023-02-12T06:41:37;10.67;;;6.97;;
39300;SDS011;25019;42.626;23.380;2023-02-12T06:44:03;10.40;;;5.43;;
39300;SDS011;25019;42.626;23.380;2023-02-12T06:46:29;12.27;;;6.93;;
39300;SDS011;25019;42.626;23.380;2023-02-12T06:48:56;15.37;;;7.70;;
39300;SDS011;25019;42.626;23.380;2023-02-12T06:51:26;14.03;;;7.90;;
39300;SDS011;25019;42.626;23.380;2023-02-12T06:53:53;11.77;;;7.70;;
39300;SDS011;25019;42.626;23.380;2023-02-12T06:56:20;12.23;;;7.17;;
39300;SDS011;25019;42.626;23.380;2023-02-12T06:58:47;13.03;;;6.80;;
39300;SDS011;25019;42.626;23.380;2023-02-12T07:01:18;13.70;;;7.40;;
39300;SDS011;25019;42.626;23.380;2023-02-12T07:03:49;11.07;;;6.73;;
39300;SDS011;25019;42.626;23.380;2023-02-12T07:06:19;12.80;;;7.70;;
39300;SDS011;25019;42.626;23.380;2023-02-12T07:08:45;14.00;;;8.40;;
39300;SDS011;25019;42.626;23.380;2023-02-12T07:11:11;11.63;;;5.97;;
39300;SDS011;25019;42.626;23.380;2023-02-12T07:13:38;13.73;;;8.50;;
39300;SDS011;25019;42.626;23.380;2023-02-12T07:16:09;13.20;;;8.23;;
39300;SDS011;25019;42.626;23.380;2023-02-12T07:18:37;13.43;;;8.20;;
39300;SDS011;25019;42.626;23.380;2023-02-12T07:21:03;15.07;;;8.70;;
39300;SDS011;25019;42.626;23.380;2023-02-12T07:23:30;11.67;;;6.50;;
39300;SDS011;25019;42.626;23.380;2023-02-12T07:26:01;14.47;;;8.27;;
39300;SDS011;25019;42.626;23.380;2023-02-12T07:28:31;13.43;;;7.53;;
39300;SDS011;25019;42.626;23.380;2023-02-12T07:30:58;12.13;;;7.47;;
39300;SDS011;25019;42.626;23.380;2023-02-12T07:33:31;14.40;;;8.63;;
39300;SDS011;25019;42.626;23.380;2023-02-12T07:35:59;16.07;;;9.17;;
39300;SDS011;25019;42.626;23.380;2023-02-12T07:38:25;14.80;;;8.93;;
39300;SDS011;25019;42.626;23.380;2023-02-12T07:40:51;17.63;;;7.57;;
39300;SDS011;25019;42.626;23.380;2023-02-12T07:43:16;14.30;;;7.60;;
39300;SDS011;25019;42.626;23.380;2023-02-12T07:45:42;14.57;;;9.73;;
39300;SDS011;25019;42.626;23.380;2023-02-12T07:48:08;15.60;;;9.63;;
39300;SDS011;25019;42.626;23.380;2023-02-12T07:50:33;13.00;;;8.20;;
39300;SDS011;25019;42.626;23.380;2023-02-12T07:52:59;14.27;;;8.83;;
39300;SDS011;25019;42.626;23.380;2023-02-12T07:55:24;11.83;;;7.70;;
39300;SDS011;25019;42.626;23.380;2023-02-12T07:57:50;15.37;;;9.10;;
39300;SDS011;25019;42.626;23.380;2023-02-12T08:00:16;12.93;;;7.63;;
39300;SDS011;25019;42.626;23.380;2023-02-12T08:02:41;13.97;;;9.47;;
39300;SDS011;25019;42.626;23.380;2023-02-12T08:05:07;20.07;;;10.73;;
39300;SDS011;25019;42.626;23.380;2023-02-12T08:07:33;15.10;;;9.20;;
39300;SDS011;25019;42.626;23.380;2023-02-12T08:09:58;17.13;;;10.13;;
39300;SDS011;25019;42.626;23.380;2023-02-12T08:12:24;17.37;;;10.77;;
39300;SDS011;25019;42.626;23.380;2023-02-12T08:14:49;16.33;;;10.50;;
39300;SDS011;25019;42.626;23.380;2023-02-12T08:17:15;16.27;;;9.63;;
39300;SDS011;25019;42.626;23.380;2023-02-12T08:19:41;17.77;;;9.90;;
39300;SDS011;25019;42.626;23.380;2023-02-12T08:22:06;15.07;;;9.43;;
39300;SDS011;25019;42.626;23.380;2023-02-12T08:24:32;18.40;;;11.03;;
39300;SDS011;25019;42.626;23.380;2023-02-12T08:26:57;15.63;;;10.13;;
39300;SDS011;25019;42.626;23.380;2023-02-12T08:29:25;19.67;;;11.67;;
39300;SDS011;25019;42.626;23.380;2023-02-12T08:31:59;18.90;;;11.23;;
39300;SDS011;25019;42.626;23.380;2023-02-12T08:34:33;16.90;;;10.50;;
39300;SDS011;25019;42.626;23.380;2023-02-12T08:37:00;19.83;;;11.73;;
39300;SDS011;25019;42.626;23.380;2023-02-12T08:39:26;17.97;;;11.33;;
39300;SDS011;25019;42.626;23.380;2023-02-12T08:41:54;19.03;;;11.80;;
39300;SDS011;25019;42.626;23.380;2023-02-12T08:44:20;20.67;;;12.37;;
39300;SDS011;25019;42.626;23.380;2023-02-12T08:46:47;20.37;;;12.57;;
39300;SDS011;25019;42.626;23.380;2023-02-12T08:49:15;15.73;;;10.97;;
39300;SDS011;25019;42.626;23.380;2023-02-12T08:51:44;21.40;;;12.40;;
39300;SDS011;25019;42.626;23.380;2023-02-12T08:54:14;17.50;;;11.07;;
39300;SDS011;25019;42.626;23.380;2023-02-12T08:56:42;22.93;;;12.73;;
39300;SDS011;25019;42.626;23.380;2023-02-12T08:59:12;19.00;;;11.67;;
39300;SDS011;25019;42.626;23.380;2023-02-12T09:01:39;16.97;;;11.50;;
39300;SDS011;25019;42.626;23.380;2023-02-12T09:04:06;13.90;;;8.77;;
39300;SDS011;25019;42.626;23.380;2023-02-12T09:06:34;15.47;;;10.20;;
39300;SDS011;25019;42.626;23.380;2023-02-12T09:09:00;17.47;;;10.77;;
39300;SDS011;25019;42.626;23.380;2023-02-12T09:11:26;16.67;;;10.13;;
39300;SDS011;25019;42.626;23.380;2023-02-12T09:13:59;18.40;;;11.87;;
39300;SDS011;25019;42.626;23.380;2023-02-12T09:16:27;19.13;;;12.10;;
39300;SDS011;25019;42.626;23.380;2023-02-12T09:18:53;15.90;;;10.57;;
39300;SDS011;25019;42.626;23.380;2023-02-12T09:21:19;20.60;;;11.33;;
39300;SDS011;25019;42.626;23.380;2023-02-12T09:23:45;17.67;;;10.33;;
39300;SDS011;25019;42.626;23.380;2023-02-12T09:26:12;19.13;;;11.63;;
39300;SDS011;25019;42.626;23.380;2023-02-12T09:28:40;17.70;;;11.73;;
39300;SDS011;25019;42.626;23.380;2023-02-12T09:31:11;17.90;;;11.70;;
39300;SDS011;25019;42.626;23.380;2023-02-12T09:33:39;13.07;;;8.83;;
39300;SDS011;25019;42.626;23.380;2023-02-12T09:36:13;20.00;;;11.37;;
39300;SDS011;25019;42.626;23.380;2023-02-12T09:38:40;20.00;;;7.80;;
39300;SDS011;25019;42.626;23.380;2023-02-12T09:41:21;17.67;;;10.27;;
39300;SDS011;25019;42.626;23.380;2023-02-12T09:46:54;14.60;;;9.23;;
39300;SDS011;25019;42.626;23.380;2023-02-12T09:52:17;16.57;;;11.17;;
39300;SDS011;25019;42.626;23.380;2023-02-12T09:54:46;18.37;;;10.77;;
39300;SDS011;25019;42.626;23.380;2023-02-12T09:57:18;20.73;;;13.10;;
39300;SDS011;25019;42.626;23.380;2023-02-12T09:59:53;21.67;;;12.50;;
39300;SDS011;25019;42.626;23.380;2023-02-12T10:02:40;18.50;;;10.83;;
39300;SDS011;25019;42.626;23.380;2023-02-12T10:05:26;19.80;;;12.43;;
39300;SDS011;25019;42.626;23.380;2023-02-12T10:08:32;18.70;;;12.63;;
39300;SDS011;25019;42.626;23.380;2023-02-12T10:11:31;20.77;;;13.17;;
39300;SDS011;25019;42.626;23.380;2023-02-12T10:17:00;19.43;;;12.00;;
39300;SDS011;25019;42.626;23.380;2023-02-12T10:22:37;22.77;;;13.13;;
39300;SDS011;25019;42.626;23.380;2023-02-12T10:27:50;20.97;;;11.83;;
39300;SDS011;25019;42.626;23.380;2023-02-12T10:30:25;25.43;;;15.17;;
39300;SDS011;25019;42.626;23.380;2023-02-12T10:33:16;21.27;;;12.90;;
39300;SDS011;25019;42.626;23.380;2023-02-12T10:35:49;24.47;;;13.77;;
39300;SDS011;25019;42.626;23.380;2023-02-12T10:38:43;25.77;;;15.67;;
39300;SDS011;25019;42.626;23.380;2023-02-12T10:41:13;26.43;;;16.00;;
39300;SDS011;25019;42.626;23.380;2023-02-12T10:43:40;28.77;;;16.80;;
39300;SDS011;25019;42.626;23.380;2023-02-12T10:46:09;28.20;;;17.57;;
39300;SDS011;25019;42.626;23.380;2023-02-12T10:48:39;24.23;;;15.40;;
39300;SDS011;25019;42.626;23.380;2023-02-12T10:56:17;25.23;;;15.77;;
39300;SDS011;25019;42.626;23.380;2023-02-12T10:58:55;29.60;;;17.30;;
39300;SDS011;25019;42.626;23.380;2023-02-12T11:01:29;22.13;;;14.00;;
39300;SDS011;25019;42.626;23.380;2023-02-12T11:03:58;26.17;;;16.50;;
39300;SDS011;25019;42.626;23.380;2023-02-12T11:06:55;23.20;;;14.87;;
39300;SDS011;25019;42.626;23.380;2023-02-12T11:09:39;25.50;;;15.60;;
39300;SDS011;25019;42.626;23.380;2023-02-12T11:14:53;24.87;;;15.83;;
39300;SDS011;25019;42.626;23.380;2023-02-12T11:17:25;23.57;;;15.87;;
39300;SDS011;25019;42.626;23.380;2023-02-12T11:20:07;30.13;;;17.90;;
39300;SDS011;25019;42.626;23.380;2023-02-12T11:22:55;28.43;;;16.77;;
39300;SDS011;25019;42.626;23.380;2023-02-12T11:25:22;25.43;;;16.40;;
39300;SDS011;25019;42.626;23.380;2023-02-12T11:28:00;28.40;;;17.03;;
39300;SDS011;25019;42.626;23.380;2023-02-12T11:30:50;24.80;;;16.47;;
39300;SDS011;25019;42.626;23.380;2023-02-12T11:33:36;26.10;;;16.97;;
39300;SDS011;25019;42.626;23.380;2023-02-12T11:36:04;26.13;;;16.93;;
39300;SDS011;25019;42.626;23.380;2023-02-12T11:38:46;29.80;;;17.00;;
39300;SDS011;25019;42.626;23.380;2023-02-12T11:41:26;26.40;;;17.23;;
39300;SDS011;25019;42.626;23.380;2023-02-12T11:47:17;27.73;;;16.67;;
39300;SDS011;25019;42.626;23.380;2023-02-12T11:49:42;25.03;;;16.47;;
39300;SDS011;25019;42.626;23.380;2023-02-12T11:52:22;25.30;;;15.93;;
39300;SDS011;25019;42.626;23.380;2023-02-12T11:54:58;23.40;;;15.53;;
39300;SDS011;25019;42.626;23.380;2023-02-12T12:00:03;26.67;;;16.87;;
39300;SDS011;25019;42.626;23.380;2023-02-12T12:02:37;26.20;;;17.60;;
39300;SDS011;25019;42.626;23.380;2023-02-12T12:05:08;28.23;;;18.20;;
39300;SDS011;25019;42.626;23.380;2023-02-12T12:07:38;24.83;;;16.50;;
39300;SDS011;25019;42.626;23.380;2023-02-12T12:15:09;22.87;;;15.30;;
39300;SDS011;25019;42.626;23.380;2023-02-12T12:18:45;24.97;;;16.30;;
39300;SDS011;25019;42.626;23.380;2023-02-12T12:26:28;25.97;;;15.83;;
39300;SDS011;25019;42.626;23.380;2023-02-12T12:29:03;28.00;;;16.50;;
39300;SDS011;25019;42.626;23.380;2023-02-12T12:31:37;30.13;;;17.93;;
39300;SDS011;25019;42.626;23.380;2023-02-12T12:34:13;24.90;;;16.33;;
39300;SDS011;25019;42.626;23.380;2023-02-12T12:51:07;28.20;;;17.03;;
39300;SDS011;25019;42.626;23.380;2023-02-12T13:07:48;24.73;;;16.83;;
39300;SDS011;25019;42.626;23.380;2023-02-12T13:10:31;27.57;;;17.17;;
39300;SDS011;25019;42.626;23.380;2023-02-12T13:15:59;26.73;;;15.07;;
39300;SDS011;25019;42.626;23.380;2023-02-12T13:27:14;24.33;;;15.87;;
39300;SDS011;25019;42.626;23.380;2023-02-12T13:29:43;25.50;;;16.17;;
39300;SDS011;25019;42.626;23.380;2023-02-12T13:34:48;25.30;;;17.00;;
39300;SDS011;25019;42.626;23.380;2023-02-12T13:37:18;25.80;;;16.20;;
39300;SDS011;25019;42.626;23.380;2023-02-12T13:39:49;24.13;;;16.13;;
39300;SDS011;25019;42.626;23.380;2023-02-12T13:47:25;27.10;;;18.13;;
39300;SDS011;25019;42.626;23.380;2023-02-12T13:53:01;26.93;;;17.07;;
39300;SDS011;25019;42.626;23.380;2023-02-12T13:55:56;26.47;;;16.87;;
39300;SDS011;25019;42.626;23.380;2023-02-12T14:01:00;28.90;;;18.80;;
39300;SDS011;25019;42.626;23.380;2023-02-12T14:03:28;25.83;;;17.60;;
39300;SDS011;25019;42.626;23.380;2023-02-12T14:06:14;29.87;;;18.30;;
39300;SDS011;25019;42.626;23.380;2023-02-12T14:08:52;29.50;;;19.13;;
39300;SDS011;25019;42.626;23.380;2023-02-12T14:11:32;28.60;;;19.00;;
39300;SDS011;25019;42.626;23.380;2023-02-12T14:13:59;28.87;;;18.37;;
39300;SDS011;25019;42.626;23.380;2023-02-12T14:21:57;28.33;;;18.17;;
39300;SDS011;25019;42.626;23.380;2023-02-12T14:24:56;26.43;;;17.63;;
39300;SDS011;25019;42.626;23.380;2023-02-12T14:27:18;28.43;;;19.70;;
39300;SDS011;25019;42.626;23.380;2023-02-12T14:40:43;32.70;;;19.33;;
39300;SDS011;25019;42.626;23.380;2023-02-12T14:45:55;29.00;;;20.33;;
39300;SDS011;25019;42.626;23.380;2023-02-12T14:48:39;35.20;;;22.13;;
39300;SDS011;25019;42.626;23.380;2023-02-12T14:51:25;32.60;;;20.50;;
39300;SDS011;25019;42.626;23.380;2023-02-12T14:53:59;37.23;;;22.67;;
39300;SDS011;25019;42.626;23.380;2023-02-12T14:56:28;31.47;;;20.70;;
39300;SDS011;25019;42.626;23.380;2023-02-12T14:59:00;31.57;;;19.13;;
39300;SDS011;25019;42.626;23.380;2023-02-12T15:01:30;29.00;;;18.70;;
39300;SDS011;25019;42.626;23.380;2023-02-12T15:03:59;29.63;;;19.10;;
39300;SDS011;25019;42.626;23.380;2023-02-12T15:06:37;29.07;;;19.73;;
39300;SDS011;25019;42.626;23.380;2023-02-12T15:09:08;31.53;;;21.00;;
39300;SDS011;25019;42.626;23.380;2023-02-12T15:11:44;32.17;;;21.27;;
39300;SDS011;25019;42.626;23.380;2023-02-12T15:20:06;33.40;;;21.80;;
39300;SDS011;25019;42.626;23.380;2023-02-12T15:22:18;30.03;;;19.97;;
39300;SDS011;25019;42.626;23.380;2023-02-12T15:27:51;30.63;;;20.67;;
39300;SDS011;25019;42.626;23.380;2023-02-12T15:30:32;31.67;;;19.90;;
39300;SDS011;25019;42.626;23.380;2023-02-12T15:33:02;32.40;;;21.43;;
39300;SDS011;25019;42.626;23.380;2023-02-12T15:35:30;33.07;;;20.90;;
39300;SDS011;25019;42.626;23.380;2023-02-12T15:37:58;36.83;;;21.10;;
39300;SDS011;25019;42.626;23.380;2023-02-12T15:40:25;31.20;;;20.53;;
39300;SDS011;25019;42.626;23.380;2023-02-12T15:42:57;33.77;;;22.43;;
39300;SDS011;25019;42.626;23.380;2023-02-12T15:45:28;31.70;;;21.53;;
39300;SDS011;25019;42.626;23.380;2023-02-12T15:48:00;34.53;;;21.80;;
39300;SDS011;25019;42.626;23.380;2023-02-12T15:50:29;31.37;;;20.07;;
39300;SDS011;25019;42.626;23.380;2023-02-12T15:52:56;28.57;;;19.67;;
39300;SDS011;25019;42.626;23.380;2023-02-12T15:55:23;31.47;;;20.10;;
39300;SDS011;25019;42.626;23.380;2023-02-12T15:57:52;35.43;;;22.60;;
39300;SDS011;25019;42.626;23.380;2023-02-12T16:03:17;41.67;;;24.57;;
39300;SDS011;25019;42.626;23.380;2023-02-12T16:06:00;35.63;;;23.13;;
39300;SDS011;25019;42.626;23.380;2023-02-12T16:08:29;38.70;;;24.13;;
39300;SDS011;25019;42.626;23.380;2023-02-12T16:10:56;36.03;;;24.57;;
39300;SDS011;25019;42.626;23.380;2023-02-12T16:13:29;44.03;;;26.07;;
39300;SDS011;25019;42.626;23.380;2023-02-12T16:16:12;38.70;;;24.07;;
39300;SDS011;25019;42.626;23.380;2023-02-12T16:18:40;38.70;;;24.90;;
39300;SDS011;25019;42.626;23.380;2023-02-12T16:21:14;39.43;;;24.77;;
39300;SDS011;25019;42.626;23.380;2023-02-12T16:23:43;36.00;;;23.63;;
39300;SDS011;25019;42.626;23.380;2023-02-12T16:26:20;41.77;;;25.57;;
39300;SDS011;25019;42.626;23.380;2023-02-12T16:28:49;40.97;;;23.83;;
39300;SDS011;25019;42.626;23.380;2023-02-12T16:31:16;40.47;;;25.53;;
39300;SDS011;25019;42.626;23.380;2023-02-12T16:33:47;45.40;;;26.73;;
39300;SDS011;25019;42.626;23.380;2023-02-12T16:38:56;43.40;;;26.53;;
39300;SDS011;25019;42.626;23.380;2023-02-12T16:46:26;39.63;;;26.47;;
39300;SDS011;25019;42.626;23.380;2023-02-12T16:48:54;41.97;;;25.10;;
39300;SDS011;25019;42.626;23.380;2023-02-12T16:51:29;40.97;;;26.73;;
39300;SDS011;25019;42.626;23.380;2023-02-12T16:53:57;43.37;;;27.10;;
39300;SDS011;25019;42.626;23.380;2023-02-12T16:56:26;46.40;;;26.93;;
39300;SDS011;25019;42.626;23.380;2023-02-12T16:58:57;42.60;;;27.83;;
39300;SDS011;25019;42.626;23.380;2023-02-12T17:03:55;45.70;;;28.70;;
39300;SDS011;25019;42.626;23.380;2023-02-12T17:06:25;47.77;;;29.97;;
39300;SDS011;25019;42.626;23.380;2023-02-12T17:08:52;48.40;;;29.83;;
39300;SDS011;25019;42.626;23.380;2023-02-12T17:11:18;50.33;;;29.17;;
39300;SDS011;25019;42.626;23.380;2023-02-12T17:13:44;49.27;;;30.83;;
39300;SDS011;25019;42.626;23.380;2023-02-12T17:16:12;53.73;;;32.57;;
39300;SDS011;25019;42.626;23.380;2023-02-12T17:18:38;58.60;;;34.33;;
39300;SDS011;25019;42.626;23.380;2023-02-12T17:21:05;53.73;;;32.40;;
39300;SDS011;25019;42.626;23.380;2023-02-12T17:23:37;57.93;;;34.37;;
39300;SDS011;25019;42.626;23.380;2023-02-12T17:26:03;59.33;;;33.80;;
39300;SDS011;25019;42.626;23.380;2023-02-12T17:28:31;58.37;;;34.37;;
39300;SDS011;25019;42.626;23.380;2023-02-12T17:30:57;55.10;;;32.87;;